Estación Meteorológica Peña el Pijo (Robertgarden) [ 07/21/18 15:53:55 CEST ]

Fecha Hora Presion(HPa) Temp (°C) Humedad % Rocio (°C) Viento ( m/s) Direccion Lluvia 1Hora(mm) Lluvia 24H(mm) LLuvia Total(mm)
2018-May-15 01:01:44 1009.600 6.5 70 1.4         215.48
2018-May-15 02:01:45 1009.200 5.6 73 1.1         215.48
2018-May-15 03:03:06 1008.800 5.4 75 1.3         215.48
2018-May-15 04:01:44 1008.700 4.8 76 0.9         215.48
2018-May-15 05:01:36 1008.600 4.2 77 0.5         215.48
2018-May-15 06:01:26 1008.500 3.5 79 0.2         215.48
2018-May-15 07:01:47 1008.800 2.9 80 -0.2         215.48
2018-May-15 08:01:38 1009.200 5.1 83 2.4         215.48
2018-May-15 09:01:51 1008.900 10.9 73 6.3         215.48
2018-May-15 10:01:45 1008.500 15.3 50 5.0         215.48
2018-May-15 11:01:49 1008.100 19.1 39 4.8         215.48
2018-May-15 12:01:47 1007.700 22.6 32 5.0         215.48
2018-May-15 13:01:48 1007.400 22.9 30 4.4 0.2 S     215.48
2018-May-15 14:01:46 1007.000 22.9 31 4.8         215.48
2018-May-15 15:01:50 1006.500 23.9 30 5.3         215.48
2018-May-15 16:01:38 1006.300 20.4 34 3.9         215.48
2018-May-15 17:01:52 1006.300 19.5 39 5.1         215.48
2018-May-15 18:01:59 1006.200 19.2 40 5.3         215.48
2018-May-15 19:01:41 1005.800 18.7 42 5.5         215.48
2018-May-15 20:01:56 1006.200 16.8 46 5.0         215.48
2018-May-15 21:01:51 1006.800 14.9 52 5.1         215.48
2018-May-15 22:02:04 1007.200 12.3 59 4.5         215.48
2018-May-15 23:01:51 1008.200 10.2 65 3.9         215.48

Temperatura Máxima:23°    Temperatura Mínima:
Presión Máxima:1009.600 Hpa    Presión Mínima:1005.800 Hpa


Volver